createdAt,value
2022-07-27T00:01:25.315Z,39.54
2022-07-27T00:03:51.849Z,39.69
2022-07-27T00:06:18.335Z,39.71
2022-07-27T00:08:45.487Z,39.34
2022-07-27T00:11:12.110Z,39.12
2022-07-27T00:13:39.165Z,39.67
2022-07-27T00:16:06.257Z,39.45
2022-07-27T00:18:32.839Z,39.28
2022-07-27T00:20:59.827Z,39.24
2022-07-27T00:23:26.517Z,39.84
2022-07-27T00:25:53.020Z,39.61
2022-07-27T00:28:19.662Z,39.63
2022-07-27T00:30:46.564Z,40.02
2022-07-27T00:33:17.101Z,39.50
2022-07-27T00:35:44.244Z,39.80
2022-07-27T00:38:10.722Z,39.96
2022-07-27T00:40:37.272Z,40.22
2022-07-27T00:43:03.770Z,40.42
2022-07-27T00:45:30.542Z,40.39
2022-07-27T00:47:57.093Z,40.64
2022-07-27T00:50:23.588Z,41.18
2022-07-27T00:52:50.672Z,41.06
2022-07-27T00:55:17.187Z,40.74
2022-07-27T00:57:57.939Z,41.10
2022-07-27T01:00:26.051Z,41.18
2022-07-27T01:02:52.673Z,41.02
2022-07-27T01:09:24.635Z,41.37
2022-07-27T01:11:53.860Z,41.59
2022-07-27T01:14:20.615Z,41.48
2022-07-27T01:16:55.290Z,41.48
2022-07-27T01:19:21.734Z,41.82
2022-07-27T01:21:48.191Z,42.17
2022-07-27T01:24:14.807Z,41.67
2022-07-27T01:26:41.425Z,42.31
2022-07-27T01:29:08.165Z,42.54
2022-07-27T01:31:34.980Z,42.71
2022-07-27T01:34:01.743Z,42.87
2022-07-27T01:36:28.303Z,42.81
2022-07-27T01:38:55.688Z,42.92
2022-07-27T01:41:23.808Z,43.13
2022-07-27T01:43:50.306Z,42.92
2022-07-27T01:46:16.870Z,42.51
2022-07-27T01:48:43.508Z,43.05
2022-07-27T01:51:10.025Z,43.36
2022-07-27T01:53:36.482Z,44.14
2022-07-27T01:56:02.974Z,43.95
2022-07-27T01:58:29.817Z,43.82
2022-07-27T02:00:56.352Z,43.73
2022-07-27T02:03:22.839Z,43.77
2022-07-27T02:05:49.333Z,43.86
2022-07-27T02:08:15.965Z,44.36
2022-07-27T02:11:02.468Z,44.47
2022-07-27T02:13:28.959Z,44.61
2022-07-27T02:15:56.943Z,44.26
2022-07-27T02:18:33.709Z,44.31
2022-07-27T02:21:04.487Z,44.30
2022-07-27T02:23:31.952Z,44.44
2022-07-27T02:25:58.800Z,44.37
2022-07-27T02:28:25.310Z,45.28
2022-07-27T02:30:51.834Z,45.23
2022-07-27T02:33:18.402Z,45.68
2022-07-27T02:35:45.031Z,45.83
2022-07-27T02:38:11.567Z,45.55
2022-07-27T02:40:38.098Z,46.07
2022-07-27T02:43:04.593Z,46.22
2022-07-27T02:45:31.096Z,46.20
2022-07-27T02:47:57.647Z,46.21
2022-07-27T02:50:24.290Z,46.42
2022-07-27T02:52:50.819Z,46.77
2022-07-27T02:55:17.321Z,46.79
2022-07-27T02:57:43.860Z,46.58
2022-07-27T03:00:13.942Z,47.23
2022-07-27T03:02:40.740Z,47.05
2022-07-27T03:05:08.514Z,47.14
2022-07-27T03:07:35.020Z,47.16
2022-07-27T03:10:01.703Z,47.32
2022-07-27T03:12:28.701Z,47.57
2022-07-27T03:14:56.333Z,47.35
2022-07-27T03:17:23.027Z,47.46
2022-07-27T03:19:49.921Z,47.76
2022-07-27T03:22:16.812Z,48.03
2022-07-27T03:24:43.430Z,47.75
2022-07-27T03:27:09.923Z,48.10
2022-07-27T03:29:36.504Z,48.25
2022-07-27T03:32:03.103Z,48.34
2022-07-27T03:34:29.631Z,48.09
2022-07-27T03:36:56.101Z,48.30
2022-07-27T03:39:22.570Z,48.40
2022-07-27T03:41:49.209Z,48.39
2022-07-27T03:44:15.723Z,48.48
2022-07-27T03:46:42.251Z,48.68
2022-07-27T03:49:14.684Z,48.57
2022-07-27T03:51:42.474Z,48.63
2022-07-27T03:54:09.087Z,48.67
2022-07-27T03:56:36.023Z,48.97
2022-07-27T03:59:02.556Z,48.87
2022-07-27T04:01:29.104Z,48.87
2022-07-27T04:03:55.701Z,48.92
2022-07-27T04:06:22.217Z,48.96
2022-07-27T04:08:48.757Z,49.18
2022-07-27T04:11:17.711Z,49.14
2022-07-27T04:13:48.235Z,49.04
2022-07-27T04:16:15.081Z,49.25
2022-07-27T04:18:41.861Z,49.39
2022-07-27T04:21:08.460Z,49.37
2022-07-27T04:23:38.273Z,49.17
2022-07-27T04:26:05.108Z,49.25
2022-07-27T04:28:32.624Z,49.22
2022-07-27T04:30:59.569Z,49.46
2022-07-27T04:33:26.213Z,49.07
2022-07-27T04:35:52.701Z,49.17
2022-07-27T04:38:19.174Z,48.81
2022-07-27T04:40:45.676Z,48.56
2022-07-27T04:43:12.185Z,48.61
2022-07-27T04:45:38.920Z,48.92
2022-07-27T04:48:08.947Z,48.51
2022-07-27T04:50:47.067Z,48.21
2022-07-27T04:53:14.678Z,47.98
2022-07-27T04:55:45.616Z,47.97
2022-07-27T04:58:13.670Z,47.45
2022-07-27T05:00:40.648Z,47.45
2022-07-27T05:03:07.293Z,46.99
2022-07-27T05:05:33.986Z,46.80
2022-07-27T05:08:00.540Z,46.72
2022-07-27T05:10:27.091Z,46.66
2022-07-27T05:12:53.815Z,46.19
2022-07-27T05:15:20.697Z,46.57
2022-07-27T05:17:47.611Z,46.39
2022-07-27T05:20:14.629Z,45.87
2022-07-27T05:22:41.101Z,46.44
2022-07-27T05:25:08.378Z,46.23
2022-07-27T05:27:36.095Z,46.14
2022-07-27T05:30:06.288Z,46.25
2022-07-27T05:32:32.876Z,46.91
2022-07-27T05:34:59.370Z,46.49
2022-07-27T05:37:25.879Z,46.00
2022-07-27T05:39:52.455Z,45.84
2022-07-27T05:42:18.945Z,45.99
2022-07-27T05:44:45.468Z,46.38
2022-07-27T05:47:11.954Z,46.11
2022-07-27T05:49:38.553Z,46.01
2022-07-27T05:52:05.402Z,46.49
2022-07-27T05:54:31.841Z,46.92
2022-07-27T05:56:58.309Z,46.53
2022-07-27T05:59:24.806Z,47.08
2022-07-27T06:01:51.289Z,46.72
2022-07-27T06:04:18.282Z,46.85
2022-07-27T06:07:03.549Z,46.91
2022-07-27T06:09:30.784Z,46.74
2022-07-27T06:11:57.264Z,46.91
2022-07-27T06:14:23.772Z,46.72
2022-07-27T06:16:50.344Z,46.57
2022-07-27T06:19:16.922Z,46.63
2022-07-27T06:21:43.441Z,46.58
2022-07-27T06:24:09.925Z,46.69
2022-07-27T06:26:36.419Z,46.23
2022-07-27T06:29:02.979Z,45.63
2022-07-27T06:31:36.994Z,45.46
2022-07-27T06:34:04.052Z,45.79
2022-07-27T06:36:34.802Z,44.30
2022-07-27T06:39:01.270Z,44.54
2022-07-27T06:41:27.833Z,43.81
2022-07-27T06:43:54.347Z,43.46
2022-07-27T06:46:20.914Z,42.92
2022-07-27T06:48:47.537Z,42.65
2022-07-27T06:51:14.193Z,42.69
2022-07-27T06:53:41.530Z,41.98
2022-07-27T06:56:08.392Z,41.28
2022-07-27T06:58:37.430Z,41.65
2022-07-27T07:01:04.672Z,41.39
2022-07-27T07:03:31.499Z,41.13
2022-07-27T07:05:58.234Z,41.36
2022-07-27T07:08:24.767Z,40.68
2022-07-27T07:10:51.387Z,39.73
2022-07-27T07:13:17.930Z,39.69
2022-07-27T07:15:44.703Z,39.59
2022-07-27T07:18:12.431Z,39.84
2022-07-27T07:20:40.758Z,39.56
2022-07-27T07:23:07.439Z,39.28
2022-07-27T07:25:34.551Z,38.86
2022-07-27T07:28:02.309Z,38.54
2022-07-27T07:30:29.563Z,38.35
2022-07-27T07:32:56.730Z,37.83
2022-07-27T07:35:23.461Z,37.28
2022-07-27T07:37:50.567Z,37.16
2022-07-27T07:40:42.089Z,36.93
2022-07-27T07:43:05.742Z,36.88
2022-07-27T07:45:35.364Z,36.57
2022-07-27T07:48:01.881Z,36.83
2022-07-27T07:50:28.821Z,36.35
2022-07-27T07:52:55.508Z,36.57
2022-07-27T07:55:27.377Z,36.68
2022-07-27T07:57:55.835Z,37.21
2022-07-27T08:00:23.835Z,35.60
2022-07-27T08:02:53.884Z,36.00
2022-07-27T08:05:21.936Z,35.56
2022-07-27T08:07:49.457Z,36.14
2022-07-27T08:10:17.645Z,35.41
2022-07-27T08:12:47.559Z,36.07
2022-07-27T08:15:15.854Z,36.87
2022-07-27T08:17:45.177Z,37.34
2022-07-27T08:20:13.450Z,37.38
2022-07-27T08:22:40.208Z,37.05
2022-07-27T08:25:08.289Z,37.14
2022-07-27T08:27:40.460Z,37.54
2022-07-27T08:30:09.057Z,37.75
2022-07-27T08:32:52.803Z,37.04
2022-07-27T08:35:19.975Z,37.34
2022-07-27T08:37:46.808Z,37.50
2022-07-27T08:43:01.865Z,36.47
2022-07-27T08:45:30.353Z,35.41
2022-07-27T08:47:57.576Z,35.69
2022-07-27T08:50:24.526Z,35.79
2022-07-27T08:53:04.920Z,34.69
2022-07-27T08:55:35.116Z,33.95
2022-07-27T08:58:03.749Z,34.16
2022-07-27T09:00:31.769Z,35.35
2022-07-27T09:02:58.562Z,35.51
2022-07-27T09:05:27.723Z,35.24
2022-07-27T09:08:15.178Z,35.39
2022-07-27T09:10:42.332Z,34.73
2022-07-27T09:13:24.515Z,33.82
2022-07-27T09:16:17.564Z,33.45
2022-07-27T09:18:43.138Z,33.27
2022-07-27T09:21:14.074Z,31.99
2022-07-27T09:23:48.029Z,30.38
2022-07-27T09:26:32.437Z,29.50
2022-07-27T09:29:15.539Z,29.01
2022-07-27T09:31:47.476Z,29.82
2022-07-27T09:34:28.339Z,30.94
2022-07-27T09:36:57.199Z,31.43
2022-07-27T09:39:26.447Z,31.50
2022-07-27T09:41:56.671Z,32.82
2022-07-27T09:44:43.318Z,33.00
2022-07-27T09:47:28.601Z,33.61
2022-07-27T09:50:31.077Z,34.63
2022-07-27T09:53:41.569Z,34.82
2022-07-27T09:56:13.276Z,34.52
2022-07-27T09:58:40.866Z,34.43
2022-07-27T10:01:09.874Z,34.01
2022-07-27T10:03:36.459Z,34.07
2022-07-27T10:06:03.601Z,34.27
2022-07-27T10:08:31.600Z,32.84
2022-07-27T10:10:58.190Z,32.90
2022-07-27T10:13:27.977Z,32.45
2022-07-27T10:15:55.277Z,32.74
2022-07-27T10:18:43.869Z,32.80
2022-07-27T10:21:17.896Z,32.88
2022-07-27T10:24:27.005Z,33.45
2022-07-27T10:26:53.669Z,33.54
2022-07-27T10:29:22.335Z,32.92
2022-07-27T10:31:54.053Z,32.24
2022-07-27T10:34:37.221Z,31.83
2022-07-27T10:37:18.299Z,31.53
2022-07-27T10:39:50.759Z,31.63
2022-07-27T10:42:35.356Z,30.96
2022-07-27T10:45:13.574Z,30.89
2022-07-27T10:47:41.627Z,30.78
2022-07-27T10:50:17.203Z,30.75
2022-07-27T10:52:52.599Z,30.52
2022-07-27T10:55:44.412Z,31.13
2022-07-27T10:58:10.856Z,30.36
2022-07-27T11:00:54.109Z,30.07
2022-07-27T11:03:33.818Z,30.03
2022-07-27T11:06:14.560Z,30.04
2022-07-27T11:09:01.725Z,30.99
2022-07-27T11:11:38.596Z,30.22
2022-07-27T11:14:05.133Z,30.03
2022-07-27T11:16:31.706Z,28.88
2022-07-27T11:19:05.615Z,29.71
2022-07-27T11:21:35.273Z,29.52
2022-07-27T11:24:14.742Z,32.50
2022-07-27T11:26:44.129Z,31.92
2022-07-27T11:29:13.156Z,31.66
2022-07-27T11:31:58.577Z,32.62
2022-07-27T11:34:34.433Z,31.65
2022-07-27T11:37:03.153Z,33.10
2022-07-27T11:42:21.861Z,31.31
2022-07-27T11:44:52.648Z,31.30
2022-07-27T11:47:21.468Z,31.72
2022-07-27T11:49:48.058Z,32.52
2022-07-27T11:52:17.404Z,32.25
2022-07-27T11:54:43.902Z,32.69
2022-07-27T11:57:16.386Z,33.13
2022-07-27T11:59:44.627Z,31.84
2022-07-27T12:02:17.726Z,32.58
2022-07-27T12:04:47.048Z,32.63
2022-07-27T12:07:29.086Z,32.42
2022-07-27T12:09:59.119Z,32.66
2022-07-27T12:12:30.193Z,31.94
2022-07-27T12:14:58.889Z,32.27
2022-07-27T12:17:34.698Z,32.33
2022-07-27T12:20:07.238Z,32.27
2022-07-27T12:22:37.802Z,32.01
2022-07-27T12:25:25.803Z,31.94
2022-07-27T12:28:12.506Z,31.43
2022-07-27T12:30:47.552Z,31.30
2022-07-27T12:33:35.778Z,30.98
2022-07-27T12:36:05.019Z,31.50
2022-07-27T12:38:39.480Z,30.51
2022-07-27T12:41:06.292Z,30.16
2022-07-27T12:43:33.082Z,31.16
2022-07-27T12:46:11.490Z,30.75
2022-07-27T12:48:40.102Z,30.66
2022-07-27T12:51:08.841Z,32.08
2022-07-27T12:53:37.720Z,30.08
2022-07-27T12:56:07.993Z,30.69
2022-07-27T12:58:36.052Z,29.29
2022-07-27T13:01:02.882Z,28.58
2022-07-27T13:03:29.446Z,29.27
2022-07-27T13:05:56.050Z,29.25
2022-07-27T13:08:23.392Z,28.74
2022-07-27T13:10:52.202Z,29.00
2022-07-27T13:13:24.481Z,29.11
2022-07-27T13:15:52.360Z,28.64
2022-07-27T13:18:23.438Z,28.85
2022-07-27T13:20:50.791Z,28.21
2022-07-27T13:23:17.775Z,28.66
2022-07-27T13:25:44.554Z,28.96
2022-07-27T13:28:11.768Z,28.27
2022-07-27T13:30:38.575Z,29.02
2022-07-27T13:33:05.115Z,29.40
2022-07-27T13:35:31.653Z,28.99
2022-07-27T13:37:58.204Z,29.67
2022-07-27T13:40:24.852Z,29.60
2022-07-27T13:42:51.382Z,29.07
2022-07-27T13:45:17.905Z,29.82
2022-07-27T13:47:44.351Z,29.72
2022-07-27T13:50:18.266Z,30.16
2022-07-27T13:52:46.425Z,29.83
2022-07-27T13:55:14.460Z,29.85
2022-07-27T13:57:41.045Z,29.73
2022-07-27T14:00:08.201Z,29.90
2022-07-27T14:02:34.874Z,31.07
2022-07-27T14:05:02.547Z,30.61
2022-07-27T14:07:32.712Z,30.00
2022-07-27T14:10:17.484Z,30.25
2022-07-27T14:12:44.064Z,30.41
2022-07-27T14:15:11.087Z,30.46
2022-07-27T14:17:37.658Z,30.15
2022-07-27T14:20:06.334Z,30.13
2022-07-27T14:22:32.993Z,30.26
2022-07-27T14:24:59.803Z,29.96
2022-07-27T14:27:26.290Z,31.26
2022-07-27T14:30:04.404Z,30.53
2022-07-27T14:32:32.456Z,30.35
2022-07-27T14:34:58.982Z,30.09
2022-07-27T14:37:25.489Z,30.16
2022-07-27T14:39:52.132Z,30.16
2022-07-27T14:42:23.806Z,30.21
2022-07-27T14:44:50.388Z,30.70
2022-07-27T14:47:17.292Z,30.13
2022-07-27T14:49:43.893Z,30.77
2022-07-27T14:52:13.600Z,30.19
2022-07-27T14:54:41.260Z,30.41
2022-07-27T14:57:07.910Z,30.49
2022-07-27T14:59:34.540Z,30.48
2022-07-27T15:02:01.458Z,30.33
2022-07-27T15:04:28.288Z,30.45
2022-07-27T15:06:57.266Z,30.54
2022-07-27T15:09:26.602Z,31.39
2022-07-27T15:11:53.645Z,30.92
2022-07-27T15:14:20.799Z,30.85
2022-07-27T15:16:47.608Z,30.69
2022-07-27T15:19:14.609Z,30.94
2022-07-27T15:21:41.734Z,30.67
2022-07-27T15:24:08.341Z,30.96
2022-07-27T15:26:35.315Z,31.59
2022-07-27T15:29:01.866Z,30.53
2022-07-27T15:31:28.453Z,30.56
2022-07-27T15:33:55.012Z,30.52
2022-07-27T15:36:32.554Z,31.17
2022-07-27T15:38:59.926Z,30.98
2022-07-27T15:41:26.417Z,31.11
2022-07-27T15:43:52.978Z,30.69
2022-07-27T15:46:27.920Z,31.53
2022-07-27T15:48:55.125Z,31.51
2022-07-27T15:51:21.660Z,31.23
2022-07-27T15:53:48.139Z,31.55
2022-07-27T15:56:14.641Z,31.00
2022-07-27T15:58:41.166Z,30.64
2022-07-27T16:01:08.536Z,30.30
2022-07-27T16:03:39.387Z,30.57
2022-07-27T16:06:06.037Z,30.47
2022-07-27T16:08:32.518Z,30.50
2022-07-27T16:10:59.044Z,31.37
2022-07-27T16:13:25.669Z,31.08
2022-07-27T16:16:11.378Z,31.25
2022-07-27T16:18:39.082Z,31.29
2022-07-27T16:21:06.047Z,30.94
2022-07-27T16:23:32.695Z,30.72
2022-07-27T16:26:04.920Z,30.61
2022-07-27T16:28:34.210Z,30.35
2022-07-27T16:31:01.532Z,30.82
2022-07-27T16:33:28.172Z,31.38
2022-07-27T16:35:54.713Z,31.26
2022-07-27T16:38:21.250Z,30.95
2022-07-27T16:40:47.885Z,31.77
2022-07-27T16:43:14.443Z,30.89
2022-07-27T16:45:40.953Z,31.45
2022-07-27T16:48:07.463Z,31.61
2022-07-27T16:50:34.039Z,31.19
2022-07-27T16:53:01.453Z,31.18
2022-07-27T16:55:28.301Z,32.02
2022-07-27T16:57:55.859Z,31.24
2022-07-27T17:00:22.581Z,30.98
2022-07-27T17:02:49.105Z,31.20
2022-07-27T17:05:15.759Z,31.85
2022-07-27T17:07:42.822Z,31.26
2022-07-27T17:10:10.046Z,31.22
2022-07-27T17:12:39.077Z,31.30
2022-07-27T17:15:06.881Z,31.42
2022-07-27T17:17:33.687Z,31.62
2022-07-27T17:20:00.234Z,31.67
2022-07-27T17:22:27.145Z,31.60
2022-07-27T17:24:53.666Z,31.64
2022-07-27T17:27:20.209Z,31.99
2022-07-27T17:29:46.813Z,31.19
2022-07-27T17:32:13.452Z,31.87
2022-07-27T17:34:41.534Z,31.72
2022-07-27T17:37:08.171Z,30.97
2022-07-27T17:39:35.297Z,31.04
2022-07-27T17:42:01.954Z,31.16
2022-07-27T17:44:28.534Z,31.32
2022-07-27T17:46:55.095Z,31.16
2022-07-27T17:49:21.844Z,31.11
2022-07-27T17:51:48.382Z,30.86
2022-07-27T17:54:14.867Z,31.21
2022-07-27T17:56:41.773Z,31.68
2022-07-27T17:59:27.312Z,31.38
2022-07-27T18:01:56.456Z,31.35
2022-07-27T18:04:23.140Z,31.48
2022-07-27T18:06:49.717Z,31.39
2022-07-27T18:09:17.236Z,31.35
2022-07-27T18:11:44.478Z,31.46
2022-07-27T18:14:10.962Z,31.55
2022-07-27T18:16:40.681Z,31.53
2022-07-27T18:19:07.751Z,31.95
2022-07-27T18:21:35.621Z,32.12
2022-07-27T18:24:02.790Z,31.81
2022-07-27T18:26:29.304Z,32.17
2022-07-27T18:28:57.546Z,32.29
2022-07-27T18:31:24.536Z,32.19
2022-07-27T18:33:54.249Z,32.57
2022-07-27T18:36:21.713Z,32.56
2022-07-27T18:38:49.994Z,33.03
2022-07-27T18:41:17.597Z,32.85
2022-07-27T18:43:51.077Z,32.68
2022-07-27T18:46:19.403Z,33.05
2022-07-27T18:48:46.402Z,33.14
2022-07-27T18:51:13.292Z,33.27
2022-07-27T18:53:39.983Z,33.46
2022-07-27T18:56:06.631Z,33.55
2022-07-27T18:58:33.716Z,33.73
2022-07-27T19:01:00.267Z,34.00
2022-07-27T19:03:27.848Z,34.13
2022-07-27T19:05:55.233Z,34.29
2022-07-27T19:08:22.572Z,34.35
2022-07-27T19:10:49.159Z,35.10
2022-07-27T19:13:15.723Z,34.97
2022-07-27T19:15:42.511Z,35.28
2022-07-27T19:18:09.184Z,35.29
2022-07-27T19:20:38.895Z,35.29
2022-07-27T19:23:06.883Z,34.96
2022-07-27T19:25:34.013Z,35.45
2022-07-27T19:28:02.597Z,35.56
2022-07-27T19:30:29.348Z,36.08
2022-07-27T19:32:56.501Z,35.98
2022-07-27T19:35:23.142Z,36.00
2022-07-27T19:37:49.677Z,35.93
2022-07-27T19:43:04.201Z,36.14
2022-07-27T19:45:31.096Z,36.52
2022-07-27T19:47:59.421Z,36.55
2022-07-27T19:50:26.225Z,36.97
2022-07-27T19:52:52.941Z,36.81
2022-07-27T19:55:19.492Z,36.72
2022-07-27T19:57:46.203Z,36.94
2022-07-27T20:00:13.643Z,37.02
2022-07-27T20:02:40.211Z,37.50
2022-07-27T20:05:07.254Z,37.54
2022-07-27T20:07:33.781Z,37.51
2022-07-27T20:10:00.315Z,37.97
2022-07-27T20:12:26.907Z,37.42
2022-07-27T20:14:53.479Z,37.89
2022-07-27T20:17:19.996Z,37.92
2022-07-27T20:19:46.806Z,37.54
2022-07-27T20:22:13.330Z,37.88
2022-07-27T20:24:39.800Z,37.51
2022-07-27T20:27:06.383Z,37.38
2022-07-27T20:29:33.323Z,37.56
2022-07-27T20:32:00.022Z,38.02
2022-07-27T20:34:26.546Z,37.66
2022-07-27T20:36:55.094Z,37.34
2022-07-27T20:39:21.875Z,37.42
2022-07-27T20:41:48.657Z,37.70
2022-07-27T20:44:15.201Z,37.58
2022-07-27T20:46:41.695Z,37.73
2022-07-27T20:49:08.193Z,37.71
2022-07-27T20:51:35.188Z,37.78
2022-07-27T20:54:01.959Z,37.79
2022-07-27T20:56:28.532Z,37.99
2022-07-27T20:58:55.020Z,38.25
2022-07-27T21:01:21.518Z,38.61
2022-07-27T21:03:48.049Z,38.39
2022-07-27T21:06:14.650Z,38.63
2022-07-27T21:08:46.226Z,38.59
2022-07-27T21:11:13.589Z,38.27
2022-07-27T21:13:40.554Z,38.35
2022-07-27T21:16:07.154Z,38.51
2022-07-27T21:18:34.058Z,38.81
2022-07-27T21:21:00.642Z,38.61
2022-07-27T21:23:45.351Z,38.99
2022-07-27T21:26:11.826Z,39.02
2022-07-27T21:28:41.987Z,38.58
2022-07-27T21:31:08.821Z,38.67
2022-07-27T21:33:39.590Z,38.63
2022-07-27T21:36:06.868Z,38.47
2022-07-27T21:38:33.538Z,38.95
2022-07-27T21:41:00.049Z,38.96
2022-07-27T21:43:26.615Z,39.15
2022-07-27T21:45:53.172Z,39.55
2022-07-27T21:48:19.725Z,39.71
2022-07-27T21:50:46.205Z,39.37
2022-07-27T21:53:12.707Z,39.42
2022-07-27T21:55:40.827Z,39.67
2022-07-27T21:58:09.979Z,39.71
2022-07-27T22:00:37.264Z,39.70
2022-07-27T22:03:04.342Z,39.67
2022-07-27T22:05:30.967Z,39.73
2022-07-27T22:08:00.006Z,39.81
2022-07-27T22:10:28.099Z,40.04
2022-07-27T22:12:54.943Z,40.15
2022-07-27T22:15:21.491Z,40.26
2022-07-27T22:17:50.748Z,40.16
2022-07-27T22:20:18.743Z,40.52
2022-07-27T22:22:45.577Z,40.22
2022-07-27T22:25:12.222Z,40.31
2022-07-27T22:27:39.226Z,40.61
2022-07-27T22:30:06.517Z,40.97
2022-07-27T22:32:33.162Z,40.73
2022-07-27T22:34:59.629Z,40.93
2022-07-27T22:37:26.367Z,41.21
2022-07-27T22:39:53.032Z,40.90
2022-07-27T22:42:19.875Z,41.24
2022-07-27T22:44:46.383Z,41.35
2022-07-27T22:47:12.917Z,41.29
2022-07-27T22:49:39.416Z,41.21
2022-07-27T22:52:06.505Z,41.52
2022-07-27T22:54:34.666Z,41.51
2022-07-27T22:57:01.181Z,41.79
2022-07-27T22:59:27.712Z,41.74
2022-07-27T23:01:54.292Z,41.83
2022-07-27T23:04:20.882Z,42.14
2022-07-27T23:06:47.465Z,42.17
2022-07-27T23:09:14.266Z,42.35
2022-07-27T23:11:41.085Z,42.58
2022-07-27T23:14:07.676Z,42.60
2022-07-27T23:16:34.595Z,42.84
2022-07-27T23:19:01.203Z,42.99
2022-07-27T23:21:27.810Z,43.33
2022-07-27T23:23:54.420Z,43.19
2022-07-27T23:26:26.168Z,43.49
2022-07-27T23:28:53.944Z,43.53
2022-07-27T23:31:21.299Z,43.72
2022-07-27T23:33:47.956Z,43.83
2022-07-27T23:36:14.813Z,43.89
2022-07-27T23:38:41.671Z,44.14
2022-07-27T23:41:08.333Z,43.94
2022-07-27T23:43:34.833Z,44.07
2022-07-27T23:46:01.374Z,44.09
2022-07-27T23:48:28.891Z,44.12
2022-07-27T23:50:55.525Z,44.34
2022-07-27T23:53:22.123Z,43.99
2022-07-27T23:55:48.690Z,44.45
2022-07-27T23:58:15.237Z,44.38
